sensor_id;sensor_type;location;lat;lon;timestamp;P1;durP1;ratioP1;P2;durP2;ratioP2
23826;SDS011;12094;50.822;4.376;2023-06-10T00:02:25;18.75;;;8.98;;
23826;SDS011;12094;50.822;4.376;2023-06-10T00:04:53;11.60;;;8.65;;
23826;SDS011;12094;50.822;4.376;2023-06-10T00:07:20;25.00;;;8.98;;
23826;SDS011;12094;50.822;4.376;2023-06-10T00:09:48;12.38;;;8.60;;
23826;SDS011;12094;50.822;4.376;2023-06-10T00:14:50;13.52;;;8.48;;
23826;SDS011;12094;50.822;4.376;2023-06-10T00:17:24;14.73;;;9.07;;
23826;SDS011;12094;50.822;4.376;2023-06-10T00:20:01;12.23;;;8.93;;
23826;SDS011;12094;50.822;4.376;2023-06-10T00:22:38;14.45;;;9.50;;
23826;SDS011;12094;50.822;4.376;2023-06-10T00:25:08;15.63;;;9.20;;
23826;SDS011;12094;50.822;4.376;2023-06-10T00:27:58;13.52;;;9.07;;
23826;SDS011;12094;50.822;4.376;2023-06-10T00:30:29;13.18;;;9.13;;
23826;SDS011;12094;50.822;4.376;2023-06-10T00:32:57;11.50;;;9.30;;
23826;SDS011;12094;50.822;4.376;2023-06-10T00:35:26;12.75;;;8.93;;
23826;SDS011;12094;50.822;4.376;2023-06-10T00:37:53;12.55;;;9.48;;
23826;SDS011;12094;50.822;4.376;2023-06-10T00:40:20;16.05;;;9.82;;
23826;SDS011;12094;50.822;4.376;2023-06-10T00:42:47;17.08;;;8.40;;
23826;SDS011;12094;50.822;4.376;2023-06-10T00:45:14;18.25;;;9.02;;
23826;SDS011;12094;50.822;4.376;2023-06-10T00:47:43;17.50;;;8.75;;
23826;SDS011;12094;50.822;4.376;2023-06-10T00:50:12;12.63;;;9.18;;
23826;SDS011;12094;50.822;4.376;2023-06-10T00:52:40;13.50;;;9.18;;
23826;SDS011;12094;50.822;4.376;2023-06-10T00:55:10;10.40;;;9.30;;
23826;SDS011;12094;50.822;4.376;2023-06-10T00:57:41;12.35;;;9.07;;
23826;SDS011;12094;50.822;4.376;2023-06-10T01:00:13;15.60;;;9.50;;
23826;SDS011;12094;50.822;4.376;2023-06-10T01:02:44;13.73;;;9.15;;
23826;SDS011;12094;50.822;4.376;2023-06-10T01:05:14;14.95;;;9.18;;
23826;SDS011;12094;50.822;4.376;2023-06-10T01:10:16;15.05;;;9.20;;
23826;SDS011;12094;50.822;4.376;2023-06-10T01:15:38;11.60;;;8.60;;
23826;SDS011;12094;50.822;4.376;2023-06-10T01:18:09;13.07;;;9.20;;
23826;SDS011;12094;50.822;4.376;2023-06-10T01:20:43;11.10;;;9.48;;
23826;SDS011;12094;50.822;4.376;2023-06-10T01:23:17;10.57;;;9.15;;
23826;SDS011;12094;50.822;4.376;2023-06-10T01:25:46;16.90;;;9.32;;
23826;SDS011;12094;50.822;4.376;2023-06-10T01:31:08;13.18;;;9.38;;
23826;SDS011;12094;50.822;4.376;2023-06-10T01:34:01;11.98;;;9.15;;
23826;SDS011;12094;50.822;4.376;2023-06-10T01:36:30;11.73;;;9.07;;
23826;SDS011;12094;50.822;4.376;2023-06-10T01:39:02;14.02;;;9.27;;
23826;SDS011;12094;50.822;4.376;2023-06-10T01:41:31;13.40;;;9.55;;
23826;SDS011;12094;50.822;4.376;2023-06-10T01:43:59;13.73;;;10.23;;
23826;SDS011;12094;50.822;4.376;2023-06-10T01:46:26;13.57;;;9.80;;
23826;SDS011;12094;50.822;4.376;2023-06-10T01:48:56;15.60;;;9.63;;
23826;SDS011;12094;50.822;4.376;2023-06-10T01:51:23;9.75;;;8.55;;
23826;SDS011;12094;50.822;4.376;2023-06-10T01:53:50;13.50;;;9.57;;
23826;SDS011;12094;50.822;4.376;2023-06-10T01:56:17;14.40;;;9.27;;
23826;SDS011;12094;50.822;4.376;2023-06-10T01:58:48;14.50;;;9.70;;
23826;SDS011;12094;50.822;4.376;2023-06-10T02:01:16;11.25;;;9.68;;
23826;SDS011;12094;50.822;4.376;2023-06-10T02:03:43;14.13;;;9.30;;
23826;SDS011;12094;50.822;4.376;2023-06-10T02:06:13;15.10;;;9.73;;
23826;SDS011;12094;50.822;4.376;2023-06-10T02:08:44;10.95;;;9.40;;
23826;SDS011;12094;50.822;4.376;2023-06-10T02:11:11;12.52;;;9.80;;
23826;SDS011;12094;50.822;4.376;2023-06-10T02:13:38;11.88;;;9.57;;
23826;SDS011;12094;50.822;4.376;2023-06-10T02:16:05;10.75;;;9.60;;
23826;SDS011;12094;50.822;4.376;2023-06-10T02:18:32;13.85;;;9.38;;
23826;SDS011;12094;50.822;4.376;2023-06-10T02:21:01;10.52;;;9.40;;
23826;SDS011;12094;50.822;4.376;2023-06-10T02:23:28;11.75;;;9.38;;
23826;SDS011;12094;50.822;4.376;2023-06-10T02:25:55;14.05;;;9.43;;
23826;SDS011;12094;50.822;4.376;2023-06-10T02:28:24;12.07;;;9.55;;
23826;SDS011;12094;50.822;4.376;2023-06-10T02:30:59;13.63;;;9.40;;
23826;SDS011;12094;50.822;4.376;2023-06-10T02:33:28;13.75;;;9.95;;
23826;SDS011;12094;50.822;4.376;2023-06-10T02:35:58;14.27;;;9.63;;
23826;SDS011;12094;50.822;4.376;2023-06-10T02:41:08;13.07;;;10.32;;
23826;SDS011;12094;50.822;4.376;2023-06-10T02:43:36;12.07;;;10.15;;
23826;SDS011;12094;50.822;4.376;2023-06-10T02:46:15;12.52;;;10.40;;
23826;SDS011;12094;50.822;4.376;2023-06-10T02:48:45;16.30;;;10.02;;
23826;SDS011;12094;50.822;4.376;2023-06-10T02:51:18;15.73;;;10.23;;
23826;SDS011;12094;50.822;4.376;2023-06-10T02:53:48;14.40;;;9.90;;
23826;SDS011;12094;50.822;4.376;2023-06-10T02:56:16;14.88;;;10.48;;
23826;SDS011;12094;50.822;4.376;2023-06-10T02:58:43;13.82;;;10.40;;
23826;SDS011;12094;50.822;4.376;2023-06-10T03:01:15;13.82;;;9.57;;
23826;SDS011;12094;50.822;4.376;2023-06-10T03:03:50;12.60;;;10.25;;
23826;SDS011;12094;50.822;4.376;2023-06-10T03:06:19;15.02;;;10.30;;
23826;SDS011;12094;50.822;4.376;2023-06-10T03:08:49;14.13;;;10.55;;
23826;SDS011;12094;50.822;4.376;2023-06-10T03:11:19;13.48;;;9.88;;
23826;SDS011;12094;50.822;4.376;2023-06-10T03:13:48;17.30;;;9.93;;
23826;SDS011;12094;50.822;4.376;2023-06-10T03:16:17;15.75;;;11.00;;
23826;SDS011;12094;50.822;4.376;2023-06-10T03:18:46;15.15;;;10.77;;
23826;SDS011;12094;50.822;4.376;2023-06-10T03:21:14;20.13;;;10.55;;
23826;SDS011;12094;50.822;4.376;2023-06-10T03:23:41;15.02;;;10.73;;
23826;SDS011;12094;50.822;4.376;2023-06-10T03:26:08;15.93;;;11.00;;
23826;SDS011;12094;50.822;4.376;2023-06-10T03:28:44;12.93;;;11.00;;
23826;SDS011;12094;50.822;4.376;2023-06-10T03:31:13;14.02;;;10.52;;
23826;SDS011;12094;50.822;4.376;2023-06-10T03:33:41;14.45;;;10.43;;
23826;SDS011;12094;50.822;4.376;2023-06-10T03:36:12;11.13;;;9.90;;
23826;SDS011;12094;50.822;4.376;2023-06-10T03:38:39;14.60;;;11.05;;
23826;SDS011;12094;50.822;4.376;2023-06-10T03:41:07;14.25;;;11.18;;
23826;SDS011;12094;50.822;4.376;2023-06-10T03:43:40;14.02;;;10.60;;
23826;SDS011;12094;50.822;4.376;2023-06-10T03:46:08;14.05;;;10.82;;
23826;SDS011;12094;50.822;4.376;2023-06-10T03:48:37;14.90;;;10.38;;
23826;SDS011;12094;50.822;4.376;2023-06-10T03:51:05;16.35;;;10.45;;
23826;SDS011;12094;50.822;4.376;2023-06-10T03:53:33;14.27;;;10.57;;
23826;SDS011;12094;50.822;4.376;2023-06-10T03:56:02;13.85;;;9.88;;
23826;SDS011;12094;50.822;4.376;2023-06-10T03:58:30;15.13;;;10.98;;
23826;SDS011;12094;50.822;4.376;2023-06-10T04:00:59;12.98;;;10.27;;
23826;SDS011;12094;50.822;4.376;2023-06-10T04:03:33;12.60;;;10.68;;
23826;SDS011;12094;50.822;4.376;2023-06-10T04:06:01;11.25;;;10.07;;
23826;SDS011;12094;50.822;4.376;2023-06-10T04:08:32;11.50;;;10.32;;
23826;SDS011;12094;50.822;4.376;2023-06-10T04:11:00;17.23;;;11.13;;
23826;SDS011;12094;50.822;4.376;2023-06-10T04:13:31;16.23;;;11.40;;
23826;SDS011;12094;50.822;4.376;2023-06-10T04:15:59;20.77;;;10.60;;
23826;SDS011;12094;50.822;4.376;2023-06-10T04:18:27;14.35;;;10.20;;
23826;SDS011;12094;50.822;4.376;2023-06-10T04:20:58;16.80;;;10.85;;
23826;SDS011;12094;50.822;4.376;2023-06-10T04:23:26;15.50;;;10.88;;
23826;SDS011;12094;50.822;4.376;2023-06-10T04:25:55;16.17;;;10.57;;
23826;SDS011;12094;50.822;4.376;2023-06-10T04:28:24;17.95;;;10.57;;
23826;SDS011;12094;50.822;4.376;2023-06-10T04:30:51;15.00;;;10.23;;
23826;SDS011;12094;50.822;4.376;2023-06-10T04:33:19;14.88;;;11.48;;
23826;SDS011;12094;50.822;4.376;2023-06-10T04:35:48;13.18;;;10.85;;
23826;SDS011;12094;50.822;4.376;2023-06-10T04:38:20;13.48;;;10.63;;
23826;SDS011;12094;50.822;4.376;2023-06-10T04:40:48;13.65;;;10.75;;
23826;SDS011;12094;50.822;4.376;2023-06-10T04:43:17;14.43;;;10.43;;
23826;SDS011;12094;50.822;4.376;2023-06-10T04:45:46;19.00;;;11.45;;
23826;SDS011;12094;50.822;4.376;2023-06-10T04:48:13;15.70;;;11.23;;
23826;SDS011;12094;50.822;4.376;2023-06-10T04:50:43;16.52;;;11.18;;
23826;SDS011;12094;50.822;4.376;2023-06-10T04:53:12;15.45;;;10.23;;
23826;SDS011;12094;50.822;4.376;2023-06-10T04:55:43;15.20;;;11.10;;
23826;SDS011;12094;50.822;4.376;2023-06-10T04:58:10;14.20;;;10.95;;
23826;SDS011;12094;50.822;4.376;2023-06-10T05:00:38;14.73;;;11.48;;
23826;SDS011;12094;50.822;4.376;2023-06-10T05:03:06;16.50;;;11.18;;
23826;SDS011;12094;50.822;4.376;2023-06-10T05:05:33;15.38;;;11.27;;
23826;SDS011;12094;50.822;4.376;2023-06-10T05:08:00;18.30;;;10.95;;
23826;SDS011;12094;50.822;4.376;2023-06-10T05:10:29;12.50;;;10.70;;
23826;SDS011;12094;50.822;4.376;2023-06-10T05:12:59;14.00;;;10.70;;
23826;SDS011;12094;50.822;4.376;2023-06-10T05:15:28;17.35;;;10.93;;
23826;SDS011;12094;50.822;4.376;2023-06-10T05:17:58;13.77;;;10.48;;
23826;SDS011;12094;50.822;4.376;2023-06-10T05:20:25;17.38;;;11.30;;
23826;SDS011;12094;50.822;4.376;2023-06-10T05:22:53;16.60;;;11.85;;
23826;SDS011;12094;50.822;4.376;2023-06-10T05:25:22;18.20;;;11.05;;
23826;SDS011;12094;50.822;4.376;2023-06-10T05:27:50;16.90;;;10.77;;
23826;SDS011;12094;50.822;4.376;2023-06-10T05:30:16;13.10;;;10.77;;
23826;SDS011;12094;50.822;4.376;2023-06-10T05:32:48;13.70;;;10.90;;
23826;SDS011;12094;50.822;4.376;2023-06-10T05:35:19;21.35;;;10.95;;
23826;SDS011;12094;50.822;4.376;2023-06-10T05:37:46;14.55;;;10.98;;
23826;SDS011;12094;50.822;4.376;2023-06-10T05:40:14;17.80;;;11.38;;
23826;SDS011;12094;50.822;4.376;2023-06-10T05:42:41;12.90;;;10.45;;
23826;SDS011;12094;50.822;4.376;2023-06-10T05:45:08;16.38;;;10.77;;
23826;SDS011;12094;50.822;4.376;2023-06-10T05:47:36;15.15;;;10.63;;
23826;SDS011;12094;50.822;4.376;2023-06-10T05:50:04;12.98;;;11.02;;
23826;SDS011;12094;50.822;4.376;2023-06-10T05:52:36;12.30;;;11.05;;
23826;SDS011;12094;50.822;4.376;2023-06-10T05:55:03;14.82;;;10.85;;
23826;SDS011;12094;50.822;4.376;2023-06-10T05:57:32;18.20;;;11.30;;
23826;SDS011;12094;50.822;4.376;2023-06-10T06:00:00;15.05;;;10.52;;
23826;SDS011;12094;50.822;4.376;2023-06-10T06:02:38;15.82;;;11.07;;
23826;SDS011;12094;50.822;4.376;2023-06-10T06:05:06;17.65;;;11.05;;
23826;SDS011;12094;50.822;4.376;2023-06-10T06:07:34;14.98;;;10.13;;
23826;SDS011;12094;50.822;4.376;2023-06-10T06:10:01;13.23;;;11.52;;
23826;SDS011;12094;50.822;4.376;2023-06-10T06:12:28;13.15;;;10.35;;
23826;SDS011;12094;50.822;4.376;2023-06-10T06:14:57;17.30;;;10.77;;
23826;SDS011;12094;50.822;4.376;2023-06-10T06:25:05;15.65;;;11.25;;
23826;SDS011;12094;50.822;4.376;2023-06-10T06:27:36;16.20;;;10.52;;
23826;SDS011;12094;50.822;4.376;2023-06-10T06:30:03;14.52;;;10.50;;
23826;SDS011;12094;50.822;4.376;2023-06-10T06:32:32;17.00;;;10.25;;
23826;SDS011;12094;50.822;4.376;2023-06-10T06:35:01;12.48;;;10.55;;
23826;SDS011;12094;50.822;4.376;2023-06-10T06:37:29;14.57;;;10.57;;
23826;SDS011;12094;50.822;4.376;2023-06-10T06:40:13;13.73;;;10.23;;
23826;SDS011;12094;50.822;4.376;2023-06-10T06:42:44;17.08;;;11.75;;
23826;SDS011;12094;50.822;4.376;2023-06-10T06:45:32;14.10;;;10.55;;
23826;SDS011;12094;50.822;4.376;2023-06-10T06:48:05;17.75;;;11.00;;
23826;SDS011;12094;50.822;4.376;2023-06-10T06:50:33;13.38;;;10.57;;
23826;SDS011;12094;50.822;4.376;2023-06-10T06:53:04;14.65;;;9.75;;
23826;SDS011;12094;50.822;4.376;2023-06-10T06:55:39;15.55;;;10.20;;
23826;SDS011;12094;50.822;4.376;2023-06-10T06:58:08;11.95;;;9.88;;
23826;SDS011;12094;50.822;4.376;2023-06-10T07:00:35;13.27;;;10.00;;
23826;SDS011;12094;50.822;4.376;2023-06-10T07:03:04;11.10;;;9.90;;
23826;SDS011;12094;50.822;4.376;2023-06-10T07:05:32;13.02;;;9.95;;
23826;SDS011;12094;50.822;4.376;2023-06-10T07:07:59;10.50;;;9.40;;
23826;SDS011;12094;50.822;4.376;2023-06-10T07:10:26;15.55;;;10.00;;
23826;SDS011;12094;50.822;4.376;2023-06-10T07:12:55;15.50;;;9.95;;
23826;SDS011;12094;50.822;4.376;2023-06-10T07:15:22;13.23;;;9.38;;
23826;SDS011;12094;50.822;4.376;2023-06-10T07:17:50;13.38;;;9.68;;
23826;SDS011;12094;50.822;4.376;2023-06-10T07:20:20;16.73;;;9.30;;
23826;SDS011;12094;50.822;4.376;2023-06-10T07:22:48;11.15;;;9.10;;
23826;SDS011;12094;50.822;4.376;2023-06-10T07:25:15;10.57;;;9.18;;
23826;SDS011;12094;50.822;4.376;2023-06-10T07:27:42;14.27;;;9.15;;
23826;SDS011;12094;50.822;4.376;2023-06-10T07:30:10;12.77;;;9.27;;
23826;SDS011;12094;50.822;4.376;2023-06-10T07:32:38;10.23;;;9.13;;
23826;SDS011;12094;50.822;4.376;2023-06-10T07:35:08;13.75;;;9.43;;
23826;SDS011;12094;50.822;4.376;2023-06-10T07:37:37;13.88;;;9.40;;
23826;SDS011;12094;50.822;4.376;2023-06-10T07:40:05;11.15;;;8.95;;
23826;SDS011;12094;50.822;4.376;2023-06-10T07:42:39;11.10;;;8.98;;
23826;SDS011;12094;50.822;4.376;2023-06-10T07:45:08;9.65;;;8.75;;
23826;SDS011;12094;50.822;4.376;2023-06-10T07:50:29;13.80;;;8.80;;
23826;SDS011;12094;50.822;4.376;2023-06-10T07:52:58;9.80;;;8.80;;
23826;SDS011;12094;50.822;4.376;2023-06-10T07:55:26;11.90;;;8.10;;
23826;SDS011;12094;50.822;4.376;2023-06-10T07:57:55;10.77;;;9.63;;
23826;SDS011;12094;50.822;4.376;2023-06-10T08:00:23;11.48;;;8.38;;
23826;SDS011;12094;50.822;4.376;2023-06-10T08:02:51;11.13;;;8.20;;
23826;SDS011;12094;50.822;4.376;2023-06-10T08:05:19;10.07;;;8.30;;
23826;SDS011;12094;50.822;4.376;2023-06-10T08:07:47;10.32;;;8.23;;
23826;SDS011;12094;50.822;4.376;2023-06-10T08:10:16;12.75;;;8.57;;
23826;SDS011;12094;50.822;4.376;2023-06-10T08:12:46;9.80;;;8.30;;
23826;SDS011;12094;50.822;4.376;2023-06-10T08:15:13;17.30;;;8.60;;
23826;SDS011;12094;50.822;4.376;2023-06-10T08:17:42;12.80;;;9.02;;
23826;SDS011;12094;50.822;4.376;2023-06-10T08:20:12;12.23;;;8.27;;
23826;SDS011;12094;50.822;4.376;2023-06-10T08:22:39;10.50;;;7.50;;
23826;SDS011;12094;50.822;4.376;2023-06-10T08:25:09;12.07;;;8.38;;
23826;SDS011;12094;50.822;4.376;2023-06-10T08:27:40;9.30;;;8.05;;
23826;SDS011;12094;50.822;4.376;2023-06-10T08:30:08;12.43;;;8.60;;
23826;SDS011;12094;50.822;4.376;2023-06-10T08:32:37;11.07;;;8.00;;
23826;SDS011;12094;50.822;4.376;2023-06-10T08:35:04;12.13;;;8.35;;
23826;SDS011;12094;50.822;4.376;2023-06-10T08:37:32;13.70;;;8.05;;
23826;SDS011;12094;50.822;4.376;2023-06-10T08:39:59;9.43;;;8.52;;
23826;SDS011;12094;50.822;4.376;2023-06-10T08:42:43;9.90;;;7.57;;
23826;SDS011;12094;50.822;4.376;2023-06-10T08:45:25;12.43;;;8.07;;
23826;SDS011;12094;50.822;4.376;2023-06-10T08:48:12;12.25;;;8.35;;
23826;SDS011;12094;50.822;4.376;2023-06-10T08:50:43;13.07;;;7.70;;
23826;SDS011;12094;50.822;4.376;2023-06-10T08:53:11;10.48;;;8.45;;
23826;SDS011;12094;50.822;4.376;2023-06-10T08:55:44;10.43;;;7.90;;
23826;SDS011;12094;50.822;4.376;2023-06-10T08:58:18;12.88;;;7.50;;
23826;SDS011;12094;50.822;4.376;2023-06-10T09:00:48;12.82;;;7.93;;
23826;SDS011;12094;50.822;4.376;2023-06-10T09:03:16;9.55;;;7.53;;
23826;SDS011;12094;50.822;4.376;2023-06-10T09:05:45;11.77;;;7.53;;
23826;SDS011;12094;50.822;4.376;2023-06-10T09:08:18;9.55;;;7.40;;
23826;SDS011;12094;50.822;4.376;2023-06-10T09:10:47;9.23;;;7.57;;
23826;SDS011;12094;50.822;4.376;2023-06-10T09:16:37;12.75;;;7.70;;
23826;SDS011;12094;50.822;4.376;2023-06-10T09:22:49;11.82;;;7.45;;
23826;SDS011;12094;50.822;4.376;2023-06-10T09:25:19;10.93;;;7.57;;
23826;SDS011;12094;50.822;4.376;2023-06-10T09:28:04;9.07;;;7.05;;
23826;SDS011;12094;50.822;4.376;2023-06-10T09:30:39;8.10;;;6.85;;
23826;SDS011;12094;50.822;4.376;2023-06-10T09:33:10;8.63;;;6.90;;
23826;SDS011;12094;50.822;4.376;2023-06-10T09:35:44;9.35;;;7.35;;
23826;SDS011;12094;50.822;4.376;2023-06-10T09:38:33;7.63;;;6.78;;
23826;SDS011;12094;50.822;4.376;2023-06-10T09:41:01;11.30;;;7.43;;
23826;SDS011;12094;50.822;4.376;2023-06-10T09:43:45;12.15;;;7.35;;
23826;SDS011;12094;50.822;4.376;2023-06-10T09:49:19;8.45;;;6.63;;
23826;SDS011;12094;50.822;4.376;2023-06-10T09:51:50;11.50;;;7.07;;
23826;SDS011;12094;50.822;4.376;2023-06-10T09:54:19;11.82;;;6.90;;
23826;SDS011;12094;50.822;4.376;2023-06-10T09:56:47;12.15;;;7.18;;
23826;SDS011;12094;50.822;4.376;2023-06-10T09:59:28;12.30;;;7.57;;
23826;SDS011;12094;50.822;4.376;2023-06-10T10:02:01;7.55;;;6.80;;
23826;SDS011;12094;50.822;4.376;2023-06-10T10:04:31;8.45;;;6.50;;
23826;SDS011;12094;50.822;4.376;2023-06-10T10:07:03;11.45;;;7.35;;
23826;SDS011;12094;50.822;4.376;2023-06-10T10:09:32;7.93;;;7.13;;
23826;SDS011;12094;50.822;4.376;2023-06-10T10:11:59;8.57;;;6.72;;
23826;SDS011;12094;50.822;4.376;2023-06-10T10:14:28;7.93;;;6.60;;
23826;SDS011;12094;50.822;4.376;2023-06-10T10:16:59;8.98;;;6.60;;
23826;SDS011;12094;50.822;4.376;2023-06-10T10:22:37;8.82;;;7.10;;
23826;SDS011;12094;50.822;4.376;2023-06-10T10:25:08;8.77;;;6.82;;
23826;SDS011;12094;50.822;4.376;2023-06-10T10:28:21;11.95;;;6.95;;
23826;SDS011;12094;50.822;4.376;2023-06-10T10:30:42;9.73;;;7.50;;
23826;SDS011;12094;50.822;4.376;2023-06-10T10:33:37;8.63;;;6.40;;
23826;SDS011;12094;50.822;4.376;2023-06-10T10:36:16;11.38;;;7.05;;
23826;SDS011;12094;50.822;4.376;2023-06-10T10:38:46;8.45;;;5.75;;
23826;SDS011;12094;50.822;4.376;2023-06-10T10:41:30;7.28;;;6.25;;
23826;SDS011;12094;50.822;4.376;2023-06-10T10:44:01;8.70;;;5.78;;
23826;SDS011;12094;50.822;4.376;2023-06-10T10:46:29;7.57;;;6.38;;
23826;SDS011;12094;50.822;4.376;2023-06-10T10:48:58;9.85;;;6.82;;
23826;SDS011;12094;50.822;4.376;2023-06-10T10:54:29;11.65;;;6.13;;
23826;SDS011;12094;50.822;4.376;2023-06-10T10:57:16;10.98;;;7.00;;
23826;SDS011;12094;50.822;4.376;2023-06-10T11:02:41;12.90;;;6.38;;
23826;SDS011;12094;50.822;4.376;2023-06-10T11:05:14;9.88;;;5.97;;
23826;SDS011;12094;50.822;4.376;2023-06-10T11:07:55;9.35;;;6.15;;
23826;SDS011;12094;50.822;4.376;2023-06-10T11:10:34;11.70;;;6.22;;
23826;SDS011;12094;50.822;4.376;2023-06-10T11:13:09;15.25;;;6.20;;
23826;SDS011;12094;50.822;4.376;2023-06-10T11:15:44;8.43;;;5.60;;
23826;SDS011;12094;50.822;4.376;2023-06-10T11:21:03;7.95;;;6.60;;
23826;SDS011;12094;50.822;4.376;2023-06-10T11:23:38;10.85;;;6.18;;
23826;SDS011;12094;50.822;4.376;2023-06-10T11:26:22;8.30;;;6.25;;
23826;SDS011;12094;50.822;4.376;2023-06-10T11:29:02;10.43;;;5.53;;
23826;SDS011;12094;50.822;4.376;2023-06-10T11:31:41;10.57;;;5.85;;
23826;SDS011;12094;50.822;4.376;2023-06-10T11:34:12;8.50;;;5.75;;
23826;SDS011;12094;50.822;4.376;2023-06-10T11:36:40;9.90;;;5.63;;
23826;SDS011;12094;50.822;4.376;2023-06-10T11:39:13;11.13;;;6.72;;
23826;SDS011;12094;50.822;4.376;2023-06-10T11:41:41;7.28;;;5.47;;
23826;SDS011;12094;50.822;4.376;2023-06-10T11:44:13;11.82;;;6.45;;
23826;SDS011;12094;50.822;4.376;2023-06-10T11:46:45;8.13;;;6.82;;
23826;SDS011;12094;50.822;4.376;2023-06-10T11:49:15;9.43;;;6.35;;
23826;SDS011;12094;50.822;4.376;2023-06-10T11:51:42;8.23;;;5.95;;
23826;SDS011;12094;50.822;4.376;2023-06-10T11:54:17;10.63;;;6.30;;
23826;SDS011;12094;50.822;4.376;2023-06-10T11:56:45;7.57;;;6.20;;
23826;SDS011;12094;50.822;4.376;2023-06-10T11:59:13;9.80;;;6.22;;
23826;SDS011;12094;50.822;4.376;2023-06-10T12:01:43;8.85;;;6.65;;
23826;SDS011;12094;50.822;4.376;2023-06-10T12:04:15;12.05;;;6.53;;
23826;SDS011;12094;50.822;4.376;2023-06-10T12:06:49;9.75;;;6.13;;
23826;SDS011;12094;50.822;4.376;2023-06-10T12:11:53;9.55;;;6.68;;
23826;SDS011;12094;50.822;4.376;2023-06-10T12:20:06;12.40;;;6.18;;
23826;SDS011;12094;50.822;4.376;2023-06-10T12:22:41;9.55;;;6.35;;
23826;SDS011;12094;50.822;4.376;2023-06-10T12:25:12;12.85;;;6.90;;
23826;SDS011;12094;50.822;4.376;2023-06-10T12:27:40;9.30;;;6.63;;
23826;SDS011;12094;50.822;4.376;2023-06-10T12:30:20;9.30;;;6.68;;
23826;SDS011;12094;50.822;4.376;2023-06-10T12:32:51;13.63;;;6.53;;
23826;SDS011;12094;50.822;4.376;2023-06-10T12:35:25;9.37;;;6.40;;
23826;SDS011;12094;50.822;4.376;2023-06-10T12:37:57;8.40;;;6.55;;
23826;SDS011;12094;50.822;4.376;2023-06-10T12:40:30;8.85;;;6.45;;
23826;SDS011;12094;50.822;4.376;2023-06-10T12:43:05;8.18;;;6.55;;
23826;SDS011;12094;50.822;4.376;2023-06-10T12:45:33;11.10;;;6.45;;
23826;SDS011;12094;50.822;4.376;2023-06-10T12:50:39;8.68;;;6.65;;
23826;SDS011;12094;50.822;4.376;2023-06-10T12:53:09;7.78;;;5.93;;
23826;SDS011;12094;50.822;4.376;2023-06-10T12:55:46;10.77;;;6.57;;
23826;SDS011;12094;50.822;4.376;2023-06-10T12:58:15;7.57;;;6.40;;
23826;SDS011;12094;50.822;4.376;2023-06-10T13:07:48;12.80;;;7.28;;
23826;SDS011;12094;50.822;4.376;2023-06-10T13:14:36;10.23;;;7.10;;
23826;SDS011;12094;50.822;4.376;2023-06-10T13:21:30;10.75;;;6.97;;
23826;SDS011;12094;50.822;4.376;2023-06-10T13:24:08;9.65;;;6.40;;
23826;SDS011;12094;50.822;4.376;2023-06-10T13:30:27;11.68;;;6.30;;
23826;SDS011;12094;50.822;4.376;2023-06-10T13:32:55;8.88;;;6.05;;
23826;SDS011;12094;50.822;4.376;2023-06-10T13:35:22;15.15;;;6.45;;
23826;SDS011;12094;50.822;4.376;2023-06-10T13:37:49;12.15;;;6.25;;
23826;SDS011;12094;50.822;4.376;2023-06-10T13:40:17;8.88;;;7.22;;
23826;SDS011;12094;50.822;4.376;2023-06-10T13:42:46;9.30;;;6.57;;
23826;SDS011;12094;50.822;4.376;2023-06-10T13:45:17;10.77;;;6.68;;
23826;SDS011;12094;50.822;4.376;2023-06-10T13:47:47;7.13;;;6.43;;
23826;SDS011;12094;50.822;4.376;2023-06-10T13:50:15;8.63;;;6.45;;
23826;SDS011;12094;50.822;4.376;2023-06-10T13:52:42;8.07;;;6.78;;
23826;SDS011;12094;50.822;4.376;2023-06-10T13:55:09;7.65;;;6.85;;
23826;SDS011;12094;50.822;4.376;2023-06-10T13:57:43;8.05;;;6.60;;
23826;SDS011;12094;50.822;4.376;2023-06-10T14:00:14;11.18;;;6.53;;
23826;SDS011;12094;50.822;4.376;2023-06-10T14:02:44;13.13;;;7.03;;
23826;SDS011;12094;50.822;4.376;2023-06-10T14:05:13;10.70;;;6.22;;
23826;SDS011;12094;50.822;4.376;2023-06-10T14:07:42;7.47;;;6.47;;
23826;SDS011;12094;50.822;4.376;2023-06-10T14:10:14;7.93;;;6.63;;
23826;SDS011;12094;50.822;4.376;2023-06-10T14:12:42;10.77;;;7.32;;
23826;SDS011;12094;50.822;4.376;2023-06-10T14:15:09;9.35;;;6.55;;
23826;SDS011;12094;50.822;4.376;2023-06-10T14:17:37;8.77;;;6.88;;
23826;SDS011;12094;50.822;4.376;2023-06-10T14:20:04;9.93;;;6.03;;
23826;SDS011;12094;50.822;4.376;2023-06-10T14:22:32;10.13;;;6.70;;
23826;SDS011;12094;50.822;4.376;2023-06-10T14:25:01;10.32;;;6.65;;
23826;SDS011;12094;50.822;4.376;2023-06-10T14:27:29;9.77;;;6.47;;
23826;SDS011;12094;50.822;4.376;2023-06-10T14:29:56;10.50;;;7.00;;
23826;SDS011;12094;50.822;4.376;2023-06-10T14:32:23;10.77;;;6.75;;
23826;SDS011;12094;50.822;4.376;2023-06-10T14:34:56;9.63;;;6.93;;
23826;SDS011;12094;50.822;4.376;2023-06-10T14:37:24;8.68;;;6.78;;
23826;SDS011;12094;50.822;4.376;2023-06-10T14:39:52;8.55;;;6.90;;
23826;SDS011;12094;50.822;4.376;2023-06-10T14:42:19;13.45;;;6.45;;
23826;SDS011;12094;50.822;4.376;2023-06-10T14:44:50;9.07;;;6.53;;
23826;SDS011;12094;50.822;4.376;2023-06-10T14:47:19;10.30;;;6.63;;
23826;SDS011;12094;50.822;4.376;2023-06-10T14:49:47;9.93;;;6.97;;
23826;SDS011;12094;50.822;4.376;2023-06-10T14:52:14;8.55;;;6.15;;
23826;SDS011;12094;50.822;4.376;2023-06-10T14:54:41;8.77;;;6.68;;
23826;SDS011;12094;50.822;4.376;2023-06-10T14:57:08;9.88;;;6.97;;
23826;SDS011;12094;50.822;4.376;2023-06-10T14:59:35;7.05;;;6.05;;
23826;SDS011;12094;50.822;4.376;2023-06-10T15:02:03;6.78;;;6.07;;
23826;SDS011;12094;50.822;4.376;2023-06-10T15:05:40;9.83;;;6.60;;
23826;SDS011;12094;50.822;4.376;2023-06-10T15:12:37;11.07;;;6.90;;
23826;SDS011;12094;50.822;4.376;2023-06-10T15:15:16;9.18;;;6.68;;
23826;SDS011;12094;50.822;4.376;2023-06-10T15:18:47;8.93;;;6.72;;
23826;SDS011;12094;50.822;4.376;2023-06-10T15:21:52;9.90;;;6.80;;
23826;SDS011;12094;50.822;4.376;2023-06-10T15:28:43;8.40;;;7.05;;
23826;SDS011;12094;50.822;4.376;2023-06-10T15:31:10;11.10;;;7.22;;
23826;SDS011;12094;50.822;4.376;2023-06-10T15:33:39;8.43;;;7.57;;
23826;SDS011;12094;50.822;4.376;2023-06-10T15:36:11;10.52;;;8.02;;
23826;SDS011;12094;50.822;4.376;2023-06-10T15:38:42;9.13;;;7.10;;
23826;SDS011;12094;50.822;4.376;2023-06-10T15:41:09;11.23;;;7.28;;
23826;SDS011;12094;50.822;4.376;2023-06-10T15:46:39;9.02;;;7.50;;
23826;SDS011;12094;50.822;4.376;2023-06-10T15:49:09;7.50;;;6.60;;
23826;SDS011;12094;50.822;4.376;2023-06-10T15:51:38;8.57;;;6.72;;
23826;SDS011;12094;50.822;4.376;2023-06-10T15:54:12;10.63;;;7.15;;
23826;SDS011;12094;50.822;4.376;2023-06-10T15:56:39;9.55;;;7.20;;
23826;SDS011;12094;50.822;4.376;2023-06-10T15:59:07;11.38;;;7.05;;
23826;SDS011;12094;50.822;4.376;2023-06-10T16:01:46;11.77;;;7.30;;
23826;SDS011;12094;50.822;4.376;2023-06-10T16:04:18;11.80;;;7.25;;
23826;SDS011;12094;50.822;4.376;2023-06-10T16:07:05;9.45;;;6.65;;
23826;SDS011;12094;50.822;4.376;2023-06-10T16:09:44;7.53;;;6.78;;
23826;SDS011;12094;50.822;4.376;2023-06-10T16:12:11;15.48;;;7.28;;
23826;SDS011;12094;50.822;4.376;2023-06-10T16:14:39;8.48;;;6.80;;
23826;SDS011;12094;50.822;4.376;2023-06-10T16:17:12;11.48;;;7.25;;
23826;SDS011;12094;50.822;4.376;2023-06-10T16:19:45;14.63;;;7.07;;
23826;SDS011;12094;50.822;4.376;2023-06-10T16:22:13;10.65;;;7.20;;
23826;SDS011;12094;50.822;4.376;2023-06-10T16:24:49;11.27;;;7.22;;